Time;durP1;ratioP1;P1;durP2;ratioP2;P2;SDS_P1;SDS_P2;PMS_P1;PMS_P2;Temp;Humidity;BMP_temperature;BMP_pressure;BME280_temperature;BME280_humidity;BME280_pressure;Samples;Min_cycle;Max_cycle;Signal;HPM_P1;HPM_P2
2023/02/22 00:00:24;;;;;;;3.42;1.95;;;;;;;10.43;59.76;99715.16;4466371;32;20461;-90
2023/02/22 00:02:49;;;;;;;3.58;2.05;;;;;;;10.32;59.76;99719.00;4478645;31;20088;-90
2023/02/22 00:05:18;;;;;;;3.97;2.05;;;;;;;10.48;59.77;99728.03;4486906;31;22547;-89
2023/02/22 00:07:47;;;;;;;4.03;1.80;;;;;;;10.37;59.76;99727.50;4479244;32;20104;-90
2023/02/22 00:10:13;;;;;;;3.17;2.05;;;;;;;10.19;59.75;99731.53;4481723;32;20112;-88
2023/02/22 00:12:41;;;;;;;3.92;2.30;;;;;;;10.09;59.74;99733.53;4463651;32;20163;-91
2023/02/22 00:15:08;;;;;;;3.28;2.05;;;;;;;10.05;59.74;99736.28;4486311;31;20127;-89
2023/02/22 00:17:33;;;;;;;4.90;2.30;;;;;;;10.18;59.75;99734.16;4486524;31;20108;-90
2023/02/22 00:19:59;;;;;;;4.55;2.35;;;;;;;10.02;59.74;99742.41;4470809;31;20131;-90
2023/02/22 00:22:24;;;;;;;4.30;2.37;;;;;;;9.97;59.74;99739.12;4457531;32;20447;-89
2023/02/22 00:24:50;;;;;;;5.57;2.40;;;;;;;10.18;59.75;99735.00;4459282;32;20110;-89
2023/02/22 00:27:15;;;;;;;4.68;2.17;;;;;;;10.12;59.75;99737.78;4470956;32;20120;-90
2023/02/22 00:29:45;;;;;;;5.35;2.60;;;;;;;10.05;59.74;99738.88;4485332;31;20151;-89
2023/02/22 00:32:10;;;;;;;4.60;2.95;;;;;;;10.00;59.74;99738.16;4471159;32;20476;-88
2023/02/22 00:34:36;;;;;;;6.95;2.62;;;;;;;10.06;59.74;99736.22;4470997;31;20110;-90
2023/02/22 00:37:03;;;;;;;6.28;3.15;;;;;;;10.05;59.74;99738.88;4483969;32;20130;-90
2023/02/22 00:39:31;;;;;;;5.50;2.90;;;;;;;9.89;59.73;99738.47;4484179;31;20111;-89
2023/02/22 00:41:56;;;;;;;4.10;2.45;;;;;;;9.82;59.73;99740.41;4465198;31;20400;-89
2023/02/22 00:44:22;;;;;;;4.78;3.22;;;;;;;9.91;59.73;99738.41;4471395;31;20132;-89
2023/02/22 00:46:48;;;;;;;6.00;2.75;;;;;;;9.73;59.73;99742.44;4471710;32;20144;-90
2023/02/22 00:49:14;;;;;;;7.93;2.90;;;;;;;9.58;59.72;99735.06;4458312;31;20135;-89
2023/02/22 00:51:40;;;;;;;3.60;2.47;;;;;;;9.65;59.72;99736.56;4484886;31;20128;-89
2023/02/22 00:54:05;;;;;;;4.68;2.65;;;;;;;9.49;59.72;99742.22;4468316;32;20378;-90
2023/02/22 00:56:34;;;;;;;4.28;2.55;;;;;;;9.49;59.72;99739.63;4470325;32;20096;-88
2023/02/22 00:58:59;;;;;;;6.62;2.65;;;;;;;9.52;59.71;99741.28;4481055;32;20209;-90
2023/02/22 01:01:26;;;;;;;6.30;3.10;;;;;;;9.56;59.71;99739.44;4463719;32;20136;-90
2023/02/22 01:03:52;;;;;;;4.45;2.40;;;;;;;9.64;59.71;99732.28;4483749;31;20100;-90
2023/02/22 01:06:17;;;;;;;3.87;2.40;;;;;;;9.61;59.71;99732.38;4470614;32;20150;-90
2023/02/22 01:08:44;;;;;;;4.18;2.78;;;;;;;9.58;59.72;99735.91;4457765;32;20160;-89
2023/02/22 01:11:09;;;;;;;4.25;2.60;;;;;;;9.50;59.71;99727.47;4464337;32;20080;-89
2023/02/22 01:13:35;;;;;;;6.12;3.00;;;;;;;9.66;59.72;99720.09;4470351;32;20170;-90
2023/02/22 01:16:02;;;;;;;6.43;3.20;;;;;;;9.69;59.72;99722.59;4463809;32;20180;-90
2023/02/22 01:18:27;;;;;;;4.65;2.90;;;;;;;9.65;59.72;99724.44;4481225;32;20432;-90
2023/02/22 01:20:52;;;;;;;5.60;3.03;;;;;;;9.62;59.71;99728.88;4476469;32;20164;-92
2023/02/22 01:23:18;;;;;;;6.87;2.75;;;;;;;9.50;59.71;99730.09;4481262;32;20168;-90
2023/02/22 01:25:43;;;;;;;5.25;2.70;;;;;;;9.50;59.71;99728.34;4473248;31;20591;-90
2023/02/22 01:28:09;;;;;;;4.28;2.80;;;;;;;9.48;59.71;99730.12;4470501;31;20510;-90
2023/02/22 01:30:35;;;;;;;4.93;2.70;;;;;;;9.52;59.71;99723.09;4457815;32;20097;-89
2023/02/22 01:33:01;;;;;;;5.62;3.10;;;;;;;9.61;59.72;99717.63;4457345;31;20149;-88
2023/02/22 01:35:28;;;;;;;5.95;2.70;;;;;;;9.33;59.70;99722.75;4470172;32;20092;-90
2023/02/22 01:37:54;;;;;;;4.90;2.95;;;;;;;9.35;59.70;99717.50;4467356;31;20127;-89
2023/02/22 01:40:28;;;;;;;5.60;2.60;;;;;;;9.42;59.71;99725.06;4457770;32;20092;-90
2023/02/22 01:42:56;;;;;;;6.20;3.10;;;;;;;9.43;59.71;99724.19;4483716;31;20119;-90
2023/02/22 01:45:33;;;;;;;7.35;2.78;;;;;;;9.39;59.70;99722.56;4473609;31;20096;-90
2023/02/22 01:48:02;;;;;;;4.28;2.50;;;;;;;9.46;59.71;99713.72;4484963;31;20439;-89
2023/02/22 01:50:28;;;;;;;4.62;2.97;;;;;;;9.47;59.70;99717.19;4480677;31;20092;-87
2023/02/22 01:52:54;;;;;;;6.87;2.42;;;;;;;9.32;59.70;99715.84;4470083;32;20127;-90
2023/02/22 01:55:20;;;;;;;4.32;2.70;;;;;;;9.41;59.70;99723.38;4470229;31;20457;-90
2023/02/22 01:57:45;;;;;;;5.62;2.75;;;;;;;9.30;59.70;99719.37;4470270;32;20172;-90
2023/02/22 02:00:15;;;;;;;4.97;2.95;;;;;;;9.33;59.69;99720.16;4457219;31;20122;-90
2023/02/22 02:02:44;;;;;;;5.25;2.80;;;;;;;9.22;59.70;99724.75;4463886;31;20562;-89
2023/02/22 02:05:10;;;;;;;3.85;2.12;;;;;;;9.20;59.69;99719.63;4474054;32;20160;-90
2023/02/22 02:07:35;;;;;;;6.82;3.53;;;;;;;9.28;59.70;99714.22;4457384;32;20150;-89
2023/02/22 02:10:07;;;;;;;6.10;2.72;;;;;;;9.23;59.69;99713.50;4480593;31;20103;-88
2023/02/22 02:12:34;;;;;;;5.05;3.00;;;;;;;9.25;59.69;99710.87;4470697;32;20782;-88
2023/02/22 02:15:24;;;;;;;4.55;2.83;;;;;;;9.32;59.69;99708.06;4483076;31;20115;-89
2023/02/22 02:17:51;;;;;;;5.37;2.97;;;;;;;8.99;59.68;99719.31;4482789;31;20116;-89
2023/02/22 02:20:57;;;;;;;5.47;2.65;;;;;;;9.14;59.69;99716.34;4476626;31;20139;-90
2023/02/22 02:23:47;;;;;;;4.60;2.70;;;;;;;8.99;59.69;99708.94;4411865;32;20478;-90
2023/02/22 02:26:42;;;;;;;6.60;3.00;;;;;;;9.19;59.69;99715.31;4481337;31;20142;-89
2023/02/22 02:29:36;;;;;;;3.92;2.60;;;;;;;9.28;59.70;99711.63;4483216;31;20108;-89
2023/02/22 02:32:16;;;;;;;4.90;2.70;;;;;;;9.17;59.69;99713.66;4483882;31;20088;-90
2023/02/22 02:34:49;;;;;;;4.12;2.62;;;;;;;9.01;59.69;99720.16;4482373;31;20104;-89
2023/02/22 02:37:24;;;;;;;5.53;3.12;;;;;;;9.06;59.68;99718.28;4483053;32;20464;-88
2023/02/22 02:39:53;;;;;;;5.90;3.17;;;;;;;9.11;59.69;99711.22;4482448;32;20116;-89
2023/02/22 02:42:22;;;;;;;6.80;3.30;;;;;;;9.10;59.68;99712.97;4470082;32;20085;-88
2023/02/22 02:44:55;;;;;;;7.97;3.50;;;;;;;9.41;59.70;99715.59;4474462;31;20120;-89
2023/02/22 02:47:26;;;;;;;7.28;3.95;;;;;;;9.30;59.70;99711.59;4474271;32;20112;-89
2023/02/22 02:50:05;;;;;;;5.78;3.42;;;;;;;9.31;59.69;99716.75;4469041;32;20183;-89
2023/02/22 02:52:31;;;;;;;6.53;3.83;;;;;;;9.48;59.71;99713.69;4482455;32;20100;-88
2023/02/22 02:54:56;;;;;;;5.10;3.12;;;;;;;9.36;59.71;99722.66;4456303;32;20089;-89
2023/02/22 02:57:23;;;;;;;5.47;3.10;;;;;;;9.41;59.70;99723.38;4482221;32;20154;-89
2023/02/22 02:59:49;;;;;;;5.00;2.55;;;;;;;9.64;59.72;99714.94;4456870;32;20108;-88
2023/02/22 03:02:48;;;;;;;4.03;2.80;;;;;;;9.22;59.69;99716.97;4467721;32;20115;-90
2023/02/22 03:05:39;;;;;;;4.25;2.80;;;;;;;9.27;59.70;99722.06;4483216;31;20097;-90
2023/02/22 03:08:17;;;;;;;5.80;2.80;;;;;;;9.17;59.69;99724.03;4478899;31;20142;-91
2023/02/22 03:10:44;;;;;;;8.20;3.58;;;;;;;9.17;59.69;99718.84;4486375;31;20101;-91
2023/02/22 03:13:29;;;;;;;6.43;3.22;;;;;;;9.17;59.69;99727.50;4471696;31;20084;-89
2023/02/22 03:16:06;;;;;;;9.75;3.50;;;;;;;9.21;59.70;99723.06;4485247;32;20104;-90
2023/02/22 03:18:40;;;;;;;11.50;3.90;;;;;;;9.21;59.70;99729.09;4485890;31;20256;-89
2023/02/22 03:21:30;;;;;;;7.53;3.30;;;;;;;9.44;59.71;99725.88;4471825;32;20101;-89
2023/02/22 03:24:07;;;;;;;7.78;3.40;;;;;;;9.41;59.70;99718.19;4480137;31;20435;-90
2023/02/22 03:26:41;;;;;;;5.55;2.90;;;;;;;9.41;59.70;99723.38;4472751;31;20092;-91
2023/02/22 03:29:07;;;;;;;6.20;3.33;;;;;;;9.41;59.70;99718.19;4459349;32;20127;-91
2023/02/22 03:31:37;;;;;;;5.87;3.17;;;;;;;9.15;59.69;99725.81;4485562;31;20478;-91
2023/02/22 03:34:18;;;;;;;8.70;3.80;;;;;;;9.20;59.70;99730.00;4480362;32;20429;-93
2023/02/22 03:37:44;;;;;;;4.82;3.17;;;;;;;9.20;59.69;99724.81;4463152;32;20104;-92
2023/02/22 03:40:13;;;;;;;5.75;3.12;;;;;;;9.10;59.69;99728.56;4472704;31;20479;-92
2023/02/22 03:42:39;;;;;;;5.53;3.12;;;;;;;9.09;59.69;99732.03;4469288;31;20104;-91
2023/02/22 03:45:05;;;;;;;7.15;3.60;;;;;;;9.21;59.70;99723.06;4463605;32;20108;-91
2023/02/22 03:47:39;;;;;;;6.20;3.83;;;;;;;9.27;59.70;99724.66;4469209;31;20130;-92
2023/02/22 03:50:57;;;;;;;10.38;6.93;;;;;;;9.26;59.69;99733.34;4459980;32;20150;-93
2023/02/22 03:56:50;;;;;;;10.25;5.53;;;;;;;9.25;59.69;99734.25;4474513;32;20107;-91
2023/02/22 03:59:15;;;;;;;7.53;4.57;;;;;;;9.16;59.69;99737.91;4470011;32;20114;-91
2023/02/22 04:01:41;;;;;;;6.35;4.05;;;;;;;9.19;59.70;99740.44;4459687;31;20400;-91
2023/02/22 04:04:06;;;;;;;6.45;4.25;;;;;;;9.29;59.70;99735.88;4472986;32;20158;-93
2023/02/22 04:06:32;;;;;;;5.97;3.92;;;;;;;9.38;59.70;99739.06;4467401;31;20147;-94
2023/02/22 04:08:57;;;;;;;7.70;4.57;;;;;;;9.50;59.71;99736.13;4462634;32;20167;-92
2023/02/22 04:11:23;;;;;;;7.05;4.00;;;;;;;9.59;59.71;99734.16;4459389;31;20144;-91
2023/02/22 04:13:48;;;;;;;8.50;4.20;;;;;;;9.70;59.72;99734.69;4464912;31;20167;-92
2023/02/22 04:16:13;;;;;;;6.37;3.83;;;;;;;9.54;59.71;99737.75;4490359;31;20116;-90
2023/02/22 04:18:39;;;;;;;6.25;3.95;;;;;;;9.56;59.71;99739.44;4482323;32;20482;-93
2023/02/22 04:21:04;;;;;;;8.07;4.03;;;;;;;9.42;59.71;99737.22;4460165;32;20104;-90
2023/02/22 04:23:38;;;;;;;7.43;4.28;;;;;;;9.26;59.70;99747.19;4485486;31;20083;-90
2023/02/22 04:26:03;;;;;;;6.22;3.47;;;;;;;9.27;59.70;99745.44;4472631;31;20756;-91
2023/02/22 04:28:29;;;;;;;6.70;4.25;;;;;;;9.30;59.70;99741.00;4473849;31;20126;-93
2023/02/22 04:30:54;;;;;;;4.03;3.03;;;;;;;9.31;59.70;99741.87;4471545;32;20143;-89
2023/02/22 04:33:20;;;;;;;7.03;3.70;;;;;;;9.48;59.71;99743.13;4470131;32;20120;-89
2023/02/22 04:35:45;;;;;;;28.35;12.88;;;;;;;9.81;59.73;99743.91;4465457;32;20132;-89
2023/02/22 04:38:11;;;;;;;50.70;22.83;;;;;;;9.87;59.72;99744.59;4460355;32;20123;-91
2023/02/22 04:40:36;;;;;;;16.33;8.15;;;;;;;9.78;59.72;99743.13;4458959;32;20120;-91
2023/02/22 04:43:02;;;;;;;9.60;5.35;;;;;;;9.73;59.73;99745.88;4485318;31;20087;-90
2023/02/22 04:45:27;;;;;;;8.05;4.50;;;;;;;9.68;59.72;99752.06;4474290;31;20123;-89
2023/02/22 04:47:53;;;;;;;7.22;4.28;;;;;;;9.67;59.72;99745.19;4489643;31;20088;-90
2023/02/22 04:50:18;;;;;;;7.55;4.30;;;;;;;9.64;59.72;99746.12;4463684;32;20135;-90
2023/02/22 04:52:46;;;;;;;9.85;4.05;;;;;;;9.72;59.73;99744.19;4458706;32;20100;-90
2023/02/22 04:55:11;;;;;;;9.10;4.50;;;;;;;9.55;59.71;99743.78;4465283;32;20103;-90
2023/02/22 04:57:37;;;;;;;8.85;4.05;;;;;;;9.55;59.71;99746.38;4476918;31;20103;-90
2023/02/22 05:00:04;;;;;;;8.82;4.78;;;;;;;9.77;59.72;99749.25;4496057;31;20127;-89
2023/02/22 05:02:32;;;;;;;7.12;4.03;;;;;;;9.72;59.73;99748.53;4482217;31;20119;-90
2023/02/22 05:04:57;;;;;;;7.22;4.45;;;;;;;9.79;59.73;99744.84;4467939;31;20102;-90
2023/02/22 05:07:23;;;;;;;10.63;4.53;;;;;;;9.68;59.72;99746.88;4471508;32;20140;-88
2023/02/22 05:09:48;;;;;;;8.45;4.55;;;;;;;9.81;59.73;99748.25;4465418;32;20148;-91
2023/02/22 05:12:14;;;;;;;10.02;4.28;;;;;;;9.68;59.72;99754.69;4473666;32;20089;-88
2023/02/22 05:14:40;;;;;;;10.07;4.25;;;;;;;9.73;59.73;99748.47;4484849;31;20084;-89
2023/02/22 05:17:06;;;;;;;7.25;4.00;;;;;;;9.95;59.74;99746.09;4473130;31;20122;-89
2023/02/22 05:19:31;;;;;;;11.35;4.85;;;;;;;9.77;59.72;99739.69;4471365;31;20437;-91
2023/02/22 05:21:56;;;;;;;10.45;4.95;;;;;;;9.65;59.72;99741.78;4471678;32;20127;-91
2023/02/22 05:24:22;;;;;;;10.20;5.50;;;;;;;9.68;59.72;99739.94;4477367;32;20089;-89
2023/02/22 05:26:50;;;;;;;9.02;4.47;;;;;;;9.64;59.71;99750.47;4471963;32;20180;-90
2023/02/22 05:29:15;;;;;;;8.95;4.70;;;;;;;9.72;59.73;99745.91;4471460;31;20109;-90
2023/02/22 05:31:41;;;;;;;7.25;4.22;;;;;;;9.74;59.72;99751.94;4474958;31;20154;-90
2023/02/22 05:34:06;;;;;;;7.20;3.78;;;;;;;9.69;59.72;99753.78;4471640;32;20402;-91
2023/02/22 05:36:32;;;;;;;9.07;5.07;;;;;;;9.61;59.71;99763.53;4471782;32;20156;-89
2023/02/22 05:38:57;;;;;;;8.35;4.70;;;;;;;9.68;59.72;99767.66;4464595;32;20515;-91
2023/02/22 05:41:22;;;;;;;10.45;5.55;;;;;;;9.72;59.71;99764.13;4483920;32;20092;-91
2023/02/22 05:43:48;;;;;;;7.55;4.60;;;;;;;9.82;59.73;99774.19;4471764;32;20105;-91
2023/02/22 05:46:14;;;;;;;8.40;4.65;;;;;;;9.70;59.72;99773.69;4498173;31;20075;-91
2023/02/22 05:48:39;;;;;;;9.93;4.53;;;;;;;9.86;59.72;99777.56;4471437;32;20105;-90
2023/02/22 05:51:05;;;;;;;8.05;4.40;;;;;;;9.98;59.74;99772.03;4484107;32;20092;-89
2023/02/22 05:53:30;;;;;;;10.32;4.30;;;;;;;9.95;59.73;99773.88;4464215;31;20165;-90
2023/02/22 05:55:56;;;;;;;8.38;4.65;;;;;;;9.93;59.73;99773.88;4468389;32;20387;-91
2023/02/22 05:58:22;;;;;;;9.18;5.18;;;;;;;9.94;59.73;99782.56;4485016;32;20104;-89
2023/02/22 06:00:47;;;;;;;8.95;4.95;;;;;;;10.13;59.75;99778.50;4459345;32;20112;-88
2023/02/22 06:03:12;;;;;;;9.40;5.37;;;;;;;10.22;59.74;99785.22;4477062;32;20122;-90
2023/02/22 06:05:38;;;;;;;9.45;5.35;;;;;;;10.24;59.74;99783.44;4497650;31;20401;-90
2023/02/22 06:08:04;;;;;;;9.50;4.93;;;;;;;10.19;59.75;99786.13;4458728;32;20109;-91
2023/02/22 06:10:30;;;;;;;14.18;5.55;;;;;;;10.43;59.76;99790.63;4474831;31;20216;-91
2023/02/22 06:12:55;;;;;;;10.27;5.75;;;;;;;10.51;59.77;99790.38;4478927;32;20437;-91
2023/02/22 06:15:21;;;;;;;10.50;5.85;;;;;;;10.57;59.77;99790.19;4473752;32;20136;-91
2023/02/22 06:17:47;;;;;;;10.90;6.05;;;;;;;10.70;59.78;99791.53;4471488;32;20116;-92
2023/02/22 06:20:14;;;;;;;9.60;5.00;;;;;;;10.57;59.77;99798.00;4465378;32;20153;-91
2023/02/22 06:22:40;;;;;;;8.63;5.30;;;;;;;10.56;59.77;99788.50;4468216;32;20893;-90
2023/02/22 06:25:05;;;;;;;12.27;5.55;;;;;;;10.76;59.78;99785.25;4482763;32;20089;-90
2023/02/22 06:27:31;;;;;;;12.25;5.97;;;;;;;10.79;59.78;99795.56;4460745;32;20108;-90
2023/02/22 06:29:58;;;;;;;11.30;5.90;;;;;;;10.65;59.77;99805.59;4484975;32;20104;-91
2023/02/22 06:32:23;;;;;;;12.20;5.53;;;;;;;10.61;59.76;99799.59;4466019;31;20444;-91
2023/02/22 06:34:49;;;;;;;10.38;5.60;;;;;;;10.65;59.77;99801.22;4483670;31;20092;-88
2023/02/22 06:37:14;;;;;;;11.93;6.25;;;;;;;10.74;59.77;99798.31;4460513;31;20729;-90
2023/02/22 06:39:40;;;;;;;9.48;5.40;;;;;;;10.69;59.78;99805.44;4470968;31;20104;-88
2023/02/22 06:42:05;;;;;;;10.23;5.68;;;;;;;10.94;59.79;99802.91;4464674;32;20114;-90
2023/02/22 06:44:30;;;;;;;9.32;5.60;;;;;;;10.93;59.79;99806.41;4488583;31;20127;-90
2023/02/22 06:46:58;;;;;;;11.52;6.22;;;;;;;11.03;59.79;99807.78;4489287;31;20092;-89
2023/02/22 06:49:24;;;;;;;9.00;5.57;;;;;;;11.01;59.79;99811.34;4488585;31;20130;-89
2023/02/22 06:51:49;;;;;;;9.18;5.60;;;;;;;11.21;59.80;99810.69;4459811;32;20369;-90
2023/02/22 06:54:14;;;;;;;9.98;5.10;;;;;;;11.26;59.80;99814.84;4496512;31;20093;-89
2023/02/22 06:56:40;;;;;;;13.77;6.07;;;;;;;11.41;59.81;99812.63;4478112;32;20108;-88
2023/02/22 06:59:05;;;;;;;11.55;5.68;;;;;;;11.53;59.83;99813.03;4472881;31;20115;-89
2023/02/22 07:01:31;;;;;;;10.50;6.12;;;;;;;11.47;59.82;99812.41;4486004;32;20122;-88
2023/02/22 07:03:56;;;;;;;9.27;6.03;;;;;;;11.47;59.82;99810.66;4460139;31;20136;-89
2023/02/22 07:06:22;;;;;;;9.80;5.65;;;;;;;11.55;59.82;99813.00;4485433;32;20448;-89
2023/02/22 07:08:47;;;;;;;12.45;5.32;;;;;;;11.73;59.83;99817.56;4472365;31;20177;-89
2023/02/22 07:11:13;;;;;;;9.38;4.47;;;;;;;11.86;59.84;99805.84;4479899;31;20080;-90
2023/02/22 07:13:38;;;;;;;6.40;4.22;;;;;;;11.90;59.85;99810.03;4476007;31;20089;-89
2023/02/22 07:16:04;;;;;;;11.25;5.20;;;;;;;12.23;59.86;99805.31;4476878;32;20100;-89
2023/02/22 07:18:29;;;;;;;10.13;5.43;;;;;;;12.04;59.84;99803.44;4486752;31;20159;-90
2023/02/22 07:20:57;;;;;;;7.57;4.40;;;;;;;12.19;59.85;99802.87;4472760;32;20108;-88
2023/02/22 07:23:24;;;;;;;6.70;4.43;;;;;;;12.35;59.86;99801.38;4485383;31;20111;-88
2023/02/22 07:25:49;;;;;;;9.00;5.10;;;;;;;12.12;59.85;99811.84;4485519;32;20457;-87
2023/02/22 07:28:20;;;;;;;9.07;4.97;;;;;;;12.08;59.85;99805.91;4485663;31;20104;-88
2023/02/22 07:30:46;;;;;;;8.48;4.65;;;;;;;12.04;59.84;99814.72;4487016;31;20138;-89
2023/02/22 07:33:11;;;;;;;8.95;4.93;;;;;;;12.06;59.86;99806.84;4485628;31;20112;-88
2023/02/22 07:35:41;;;;;;;10.35;4.85;;;;;;;12.05;59.84;99813.81;4488366;31;20100;-88
2023/02/22 07:38:07;;;;;;;;;;;;;;;11.97;59.84;99813.25;4472946;32;20117;-87
2023/02/22 07:40:32;;;;;;;7.47;4.95;;;;;;;11.91;59.84;99818.69;4481342;31;20038;-89
2023/02/22 07:42:59;;;;;;;8.27;5.18;;;;;;;11.94;59.84;99824.66;4475653;32;20132;-89
2023/02/22 07:45:30;;;;;;;16.00;6.95;;;;;;;11.81;59.83;99812.94;4473630;32;20453;-89
2023/02/22 07:47:55;;;;;;;6.68;4.78;;;;;;;12.03;59.84;99813.00;4485231;32;20134;-89
2023/02/22 07:50:21;;;;;;;8.15;4.75;;;;;;;11.92;59.85;99817.78;4485188;32;20369;-88
2023/02/22 07:52:48;;;;;;;9.60;5.18;;;;;;;11.95;59.84;99818.53;4471970;32;20088;-89
2023/02/22 07:55:15;;;;;;;10.35;5.00;;;;;;;11.88;59.83;99811.84;4459336;32;20449;-89
2023/02/22 07:57:41;;;;;;;9.25;5.20;;;;;;;11.99;59.85;99814.91;4487026;31;20135;-89
2023/02/22 08:00:08;;;;;;;9.27;5.07;;;;;;;12.22;59.86;99808.81;4494383;31;20114;-89
2023/02/22 08:02:33;;;;;;;10.52;5.62;;;;;;;12.27;59.86;99811.25;4487070;31;20104;-89
2023/02/22 08:04:58;;;;;;;10.85;4.55;;;;;;;12.35;59.86;99810.97;4494084;31;20100;-89
2023/02/22 08:07:24;;;;;;;9.00;4.60;;;;;;;12.36;59.87;99823.13;4472094;32;20108;-89
2023/02/22 08:09:49;;;;;;;7.28;4.80;;;;;;;12.58;59.88;99813.56;4481832;31;20134;-90
2023/02/22 08:12:15;;;;;;;8.05;4.85;;;;;;;12.51;59.87;99817.28;4497811;31;20156;-89
2023/02/22 08:14:40;;;;;;;9.27;5.12;;;;;;;12.80;59.89;99809.19;4488002;31;20420;-90
2023/02/22 08:17:06;;;;;;;9.00;5.45;;;;;;;12.83;59.89;99809.06;4473638;32;20100;-89
2023/02/22 08:19:31;;;;;;;7.37;4.40;;;;;;;13.05;59.90;99811.66;4465839;32;20474;-89
2023/02/22 08:21:57;;;;;;;8.48;4.60;;;;;;;13.15;59.90;99807.72;4495416;31;20467;-89
2023/02/22 08:24:22;;;;;;;8.20;4.87;;;;;;;13.27;59.92;99803.81;4472406;32;20150;-89
2023/02/22 08:26:47;;;;;;;9.52;5.05;;;;;;;13.56;59.93;99807.78;4485100;32;20533;-90
2023/02/22 08:29:13;;;;;;;9.48;4.95;;;;;;;13.78;59.94;99800.69;4472174;32;20358;-90
2023/02/22 08:31:39;;;;;;;9.68;4.72;;;;;;;13.88;59.95;99798.50;4472344;31;20463;-88
2023/02/22 08:34:05;;;;;;;6.85;4.87;;;;;;;13.91;59.95;99792.28;4472075;32;20143;-89
2023/02/22 08:36:31;;;;;;;9.10;5.00;;;;;;;13.96;59.96;99795.53;4485196;31;20441;-89
2023/02/22 08:38:57;;;;;;;11.77;5.50;;;;;;;13.94;59.94;99802.59;4480803;31;20092;-89
2023/02/22 08:41:22;;;;;;;8.20;5.10;;;;;;;14.17;59.96;99798.94;4486937;31;20152;-89
2023/02/22 08:43:48;;;;;;;8.77;5.22;;;;;;;14.24;59.96;99800.38;4472131;32;20104;-89
2023/02/22 08:46:15;;;;;;;7.97;5.05;;;;;;;14.29;59.97;99798.41;4485027;32;20124;-89
2023/02/22 08:48:49;;;;;;;8.80;5.45;;;;;;;14.24;59.96;99795.16;4478088;32;20133;-89
2023/02/22 08:51:14;;;;;;;9.68;5.57;;;;;;;14.29;59.97;99804.47;4486422;31;20112;-89
2023/02/22 08:53:40;;;;;;;8.48;5.05;;;;;;;14.22;59.97;99795.22;4485198;32;20112;-89
2023/02/22 08:56:05;;;;;;;8.25;5.55;;;;;;;14.14;59.96;99800.78;4471784;32;20457;-89
2023/02/22 08:58:31;;;;;;;10.32;5.37;;;;;;;14.37;59.97;99802.34;4465546;32;20526;-89
2023/02/22 09:00:56;;;;;;;8.70;4.82;;;;;;;14.46;59.98;99802.91;4486733;31;20111;-89
2023/02/22 09:03:22;;;;;;;8.43;5.15;;;;;;;14.54;59.98;99791.12;4478424;32;20163;-89
2023/02/22 09:05:47;;;;;;;7.93;5.03;;;;;;;14.54;59.98;99792.91;4475038;31;20104;-90
2023/02/22 09:08:14;;;;;;;9.20;4.95;;;;;;;14.53;59.98;99788.56;4492088;31;20124;-89
2023/02/22 09:10:40;;;;;;;8.02;5.50;;;;;;;14.68;59.99;99795.72;4486221;31;20099;-89
2023/02/22 09:13:06;;;;;;;8.75;5.15;;;;;;;15.04;60.01;99791.28;4493179;31;20130;-89
2023/02/22 09:15:32;;;;;;;9.95;4.90;;;;;;;15.02;60.01;99790.50;4486321;31;20447;-89
2023/02/22 09:17:58;;;;;;;8.05;4.90;;;;;;;14.98;60.01;99794.22;4467786;31;20115;-89
2023/02/22 09:20:23;;;;;;;7.87;4.43;;;;;;;15.07;60.01;99782.41;4486375;31;20156;-89
2023/02/22 09:22:49;;;;;;;6.37;4.25;;;;;;;15.12;60.02;99790.03;4485040;32;20377;-89
2023/02/22 09:25:15;;;;;;;9.13;5.07;;;;;;;15.38;60.03;99780.84;4485986;31;20101;-89
2023/02/22 09:27:42;;;;;;;8.05;4.87;;;;;;;15.59;60.04;99780.63;4487596;31;20083;-89
2023/02/22 09:30:11;;;;;;;6.90;4.30;;;;;;;15.78;60.05;99784.94;4484779;32;20167;-89
2023/02/22 09:32:36;;;;;;;7.00;4.60;;;;;;;15.83;60.05;99782.91;4487918;31;20765;-89
2023/02/22 09:35:01;;;;;;;8.30;4.65;;;;;;;15.84;60.05;99777.56;4484715;32;20100;-89
2023/02/22 09:37:27;;;;;;;8.98;4.53;;;;;;;15.76;60.04;99781.53;4484844;32;20152;-90
2023/02/22 09:39:52;;;;;;;8.52;5.30;;;;;;;15.86;60.06;99769.62;4485956;31;20185;-89
2023/02/22 09:42:34;;;;;;;7.85;5.22;;;;;;;16.06;60.07;99774.63;4491404;31;20186;-89
2023/02/22 09:44:59;;;;;;;6.65;4.30;;;;;;;16.21;60.07;99778.22;4479004;31;228063;-89
2023/02/22 09:47:32;;;;;;;7.53;5.12;;;;;;;16.36;60.08;99773.91;4486116;31;20148;-90
2023/02/22 09:50:14;;;;;;;9.98;4.85;;;;;;;16.24;60.08;99768.41;4472469;32;20080;-89
2023/02/22 09:52:55;;;;;;;8.98;4.70;;;;;;;16.38;60.08;99762.38;4484874;31;20366;-89
2023/02/22 09:55:40;;;;;;;8.07;4.70;;;;;;;16.51;60.09;99759.91;4484817;32;20112;-89
2023/02/22 09:58:25;;;;;;;6.65;4.90;;;;;;;16.27;60.08;99768.22;4484835;32;20167;-89
2023/02/22 10:00:55;;;;;;;10.68;4.85;;;;;;;16.32;60.08;99761.84;4484741;31;20492;-89
2023/02/22 10:03:23;;;;;;;6.97;4.50;;;;;;;16.22;60.07;99765.00;4484802;32;20449;-89
2023/02/22 10:06:00;;;;;;;9.10;5.50;;;;;;;16.38;60.08;99764.16;4484532;32;20112;-89
2023/02/22 10:08:32;;;;;;;6.35;4.60;;;;;;;16.21;60.07;99759.84;4467297;31;20805;-89
2023/02/22 10:11:26;;;;;;;7.43;5.03;;;;;;;16.28;60.07;99769.91;4484624;32;20469;-89
2023/02/22 10:14:42;;;;;;;7.37;5.00;;;;;;;16.22;60.07;99765.00;4455019;31;20460;-89
2023/02/22 10:17:08;;;;;;;11.85;5.28;;;;;;;16.10;60.07;99764.84;4458845;31;20144;-89
2023/02/22 10:19:40;;;;;;;9.38;5.70;;;;;;;16.40;60.09;99763.16;4484378;32;20423;-89
2023/02/22 10:22:11;;;;;;;9.65;5.40;;;;;;;16.46;60.09;99761.94;4485980;31;20365;-89
2023/02/22 10:24:49;;;;;;;8.90;5.35;;;;;;;16.38;60.07;99765.03;4485925;31;20585;-90
2023/02/22 10:27:21;;;;;;;8.25;5.70;;;;;;;16.13;60.07;99762.91;4487323;31;20056;-90
2023/02/22 10:30:01;;;;;;;8.27;6.05;;;;;;;15.87;60.06;99758.22;4485564;32;20155;-90
2023/02/22 10:32:27;;;;;;;;;;;;;;;16.00;60.07;99761.84;4458923;32;20087;-89
2023/02/22 10:34:53;;;;;;;7.68;5.20;;;;;;;16.02;60.07;99761.75;4485571;31;20035;-89
2023/02/22 10:37:32;;;;;;;7.80;5.57;;;;;;;16.10;60.07;99754.34;4484280;32;20350;-89
2023/02/22 10:40:19;;;;;;;9.13;5.90;;;;;;;16.14;60.07;99761.97;4483973;32;20492;-90
2023/02/22 10:42:46;;;;;;;9.88;5.78;;;;;;;16.31;60.08;99765.41;4462015;31;20182;-89
2023/02/22 10:45:33;;;;;;;12.15;5.68;;;;;;;16.51;60.09;99752.03;4484085;32;20104;-89
2023/02/22 10:48:00;;;;;;;7.82;5.30;;;;;;;16.69;60.09;99753.66;4487448;31;20125;-89
2023/02/22 10:50:28;;;;;;;9.90;5.97;;;;;;;16.60;60.09;99751.53;4471117;32;20179;-89
2023/02/22 10:52:54;;;;;;;7.85;5.03;;;;;;;16.82;60.10;99741.50;4469721;32;20101;-90
2023/02/22 10:55:20;;;;;;;7.90;5.47;;;;;;;16.74;60.10;99741.09;4470691;32;20104;-90
2023/02/22 10:57:46;;;;;;;8.13;5.00;;;;;;;16.88;60.11;99742.94;4470987;32;20119;-90
2023/02/22 11:00:25;;;;;;;9.73;5.90;;;;;;;17.06;60.11;99738.38;4458114;32;20188;-89
2023/02/22 11:03:18;;;;;;;9.55;6.12;;;;;;;17.05;60.12;99745.44;4484682;31;20081;-89
2023/02/22 11:05:43;;;;;;;10.68;6.00;;;;;;;17.21;60.13;99734.84;4473564;32;20134;-89
2023/02/22 11:08:26;;;;;;;7.62;5.18;;;;;;;17.31;60.12;99737.78;4470794;32;20103;-90
2023/02/22 11:10:57;;;;;;;8.93;5.40;;;;;;;17.46;60.14;99734.22;4494430;31;20107;-89
2023/02/22 11:13:24;;;;;;;7.43;5.35;;;;;;;17.45;60.14;99727.25;4479458;31;20111;-89
2023/02/22 11:15:50;;;;;;;9.50;6.43;;;;;;;17.48;60.15;99730.53;4484858;31;20380;-89
2023/02/22 11:18:27;;;;;;;11.98;5.57;;;;;;;17.40;60.14;99724.91;4467795;31;20099;-90
2023/02/22 11:21:07;;;;;;;9.20;5.82;;;;;;;17.58;60.15;99720.31;4483731;32;20133;-89
2023/02/22 11:23:34;;;;;;;9.83;5.70;;;;;;;17.39;60.14;99719.75;4471536;31;20100;-89
2023/02/22 11:26:10;;;;;;;12.43;6.57;;;;;;;17.43;60.14;99718.59;4486761;31;20258;-90
2023/02/22 11:28:35;;;;;;;9.02;5.93;;;;;;;17.50;60.14;99723.41;4488689;31;20116;-89
2023/02/22 11:31:09;;;;;;;10.52;5.47;;;;;;;17.46;60.14;99723.69;4486020;31;20342;-89
2023/02/22 11:33:36;;;;;;;8.27;5.37;;;;;;;17.61;60.16;99717.50;4486937;31;20235;-89
2023/02/22 11:36:03;;;;;;;8.13;4.78;;;;;;;17.70;60.16;99710.84;4488422;31;20425;-89
2023/02/22 11:38:30;;;;;;;6.00;4.53;;;;;;;17.81;60.16;99710.19;4472816;32;20550;-90
2023/02/22 11:41:20;;;;;;;6.87;4.35;;;;;;;18.03;60.17;99711.37;4485675;31;20111;-90
2023/02/22 11:43:47;;;;;;;7.03;4.90;;;;;;;18.03;60.17;99718.44;4485934;32;20115;-90
2023/02/22 11:46:14;;;;;;;8.55;5.00;;;;;;;17.90;60.16;99714.88;4485842;32;20105;-89
2023/02/22 11:49:03;;;;;;;8.38;4.78;;;;;;;18.03;60.17;99713.16;4486426;32;20122;-89